sensor_id;sensor_type;location;lat;lon;timestamp;P1;P2;P0
34240;PMS7003;20503;50.200;19.508;2022-11-02T00:04:36;9;6;4
34240;PMS7003;20503;50.200;19.508;2022-11-02T00:09:47;6;4;3
34240;PMS7003;20503;50.200;19.508;2022-11-02T00:14:57;3;3;2
34240;PMS7003;20503;50.200;19.508;2022-11-02T00:20:09;7;5;2
34240;PMS7003;20503;50.200;19.508;2022-11-02T00:25:19;7;7;5
34240;PMS7003;20503;50.200;19.508;2022-11-02T00:30:30;4;3;2
34240;PMS7003;20503;50.200;19.508;2022-11-02T00:35:40;8;5;2
34240;PMS7003;20503;50.200;19.508;2022-11-02T00:40:51;5;2;2
34240;PMS7003;20503;50.200;19.508;2022-11-02T00:46:02;4;4;3
34240;PMS7003;20503;50.200;19.508;2022-11-02T00:51:13;8;5;4
34240;PMS7003;20503;50.200;19.508;2022-11-02T00:56:23;4;4;2
34240;PMS7003;20503;50.200;19.508;2022-11-02T01:01:35;6;5;3
34240;PMS7003;20503;50.200;19.508;2022-11-02T01:06:45;6;5;4
34240;PMS7003;20503;50.200;19.508;2022-11-02T01:11:56;3;2;2
34240;PMS7003;20503;50.200;19.508;2022-11-02T01:17:07;10;7;4
34240;PMS7003;20503;50.200;19.508;2022-11-02T01:22:17;7;5;4
34240;PMS7003;20503;50.200;19.508;2022-11-02T01:27:28;6;6;4
34240;PMS7003;20503;50.200;19.508;2022-11-02T01:32:39;9;6;4
34240;PMS7003;20503;50.200;19.508;2022-11-02T01:37:49;5;3;3
34240;PMS7003;20503;50.200;19.508;2022-11-02T01:43:16;7;5;3
34240;PMS7003;20503;50.200;19.508;2022-11-02T01:48:12;3;3;2
34240;PMS7003;20503;50.200;19.508;2022-11-02T01:53:22;4;4;3
34240;PMS7003;20503;50.200;19.508;2022-11-02T01:58:32;2;2;1
34240;PMS7003;20503;50.200;19.508;2022-11-02T02:03:44;4;4;3
34240;PMS7003;20503;50.200;19.508;2022-11-02T02:08:54;2;2;1
34240;PMS7003;20503;50.200;19.508;2022-11-02T02:14:05;7;3;2
34240;PMS7003;20503;50.200;19.508;2022-11-02T02:19:20;5;4;3
34240;PMS7003;20503;50.200;19.508;2022-11-02T02:34:55;8;3;2
34240;PMS7003;20503;50.200;19.508;2022-11-02T02:40:06;5;3;2
34240;PMS7003;20503;50.200;19.508;2022-11-02T02:50:29;5;4;2
34240;PMS7003;20503;50.200;19.508;2022-11-02T02:55:36;5;4;3
34240;PMS7003;20503;50.200;19.508;2022-11-02T03:00:43;7;6;4
34240;PMS7003;20503;50.200;19.508;2022-11-02T03:05:58;10;4;3
34240;PMS7003;20503;50.200;19.508;2022-11-02T03:11:22;4;3;2
34240;PMS7003;20503;50.200;19.508;2022-11-02T03:16:25;8;7;5
34240;PMS7003;20503;50.200;19.508;2022-11-02T03:31:57;10;3;2
34240;PMS7003;20503;50.200;19.508;2022-11-02T03:37:26;3;3;2
34240;PMS7003;20503;50.200;19.508;2022-11-02T03:42:21;8;8;4
34240;PMS7003;20503;50.200;19.508;2022-11-02T03:47:25;7;6;3
34240;PMS7003;20503;50.200;19.508;2022-11-02T03:52:32;9;8;5
34240;PMS7003;20503;50.200;19.508;2022-11-02T03:57:49;7;4;2
34240;PMS7003;20503;50.200;19.508;2022-11-02T04:02:54;8;6;4
34240;PMS7003;20503;50.200;19.508;2022-11-02T04:08:02;7;5;3
34240;PMS7003;20503;50.200;19.508;2022-11-02T04:13:16;9;4;2
34240;PMS7003;20503;50.200;19.508;2022-11-02T04:18:29;12;9;5
34240;PMS7003;20503;50.200;19.508;2022-11-02T04:23:42;11;9;6
34240;PMS7003;20503;50.200;19.508;2022-11-02T04:28:55;8;6;3
34240;PMS7003;20503;50.200;19.508;2022-11-02T04:33:56;12;7;5
34240;PMS7003;20503;50.200;19.508;2022-11-02T04:39:06;8;6;4
34240;PMS7003;20503;50.200;19.508;2022-11-02T04:44:16;14;11;6
34240;PMS7003;20503;50.200;19.508;2022-11-02T04:49:27;9;7;5
34240;PMS7003;20503;50.200;19.508;2022-11-02T04:54:38;12;11;7
34240;PMS7003;20503;50.200;19.508;2022-11-02T04:59:49;13;12;8
34240;PMS7003;20503;50.200;19.508;2022-11-02T05:04:59;12;8;5
34240;PMS7003;20503;50.200;19.508;2022-11-02T05:10:10;11;9;5
34240;PMS7003;20503;50.200;19.508;2022-11-02T05:15:21;22;11;6
34240;PMS7003;20503;50.200;19.508;2022-11-02T05:20:32;8;6;3
34240;PMS7003;20503;50.200;19.508;2022-11-02T05:25:50;14;10;7
34240;PMS7003;20503;50.200;19.508;2022-11-02T05:30:56;7;2;1
34240;PMS7003;20503;50.200;19.508;2022-11-02T05:36:04;16;8;6
34240;PMS7003;20503;50.200;19.508;2022-11-02T05:41:15;8;5;3
34240;PMS7003;20503;50.200;19.508;2022-11-02T05:46:25;6;5;4
34240;PMS7003;20503;50.200;19.508;2022-11-02T05:51:37;10;6;4
34240;PMS7003;20503;50.200;19.508;2022-11-02T05:56:47;14;8;5
34240;PMS7003;20503;50.200;19.508;2022-11-02T06:01:58;10;8;6
34240;PMS7003;20503;50.200;19.508;2022-11-02T06:07:08;10;8;5
34240;PMS7003;20503;50.200;19.508;2022-11-02T06:12:19;13;11;7
34240;PMS7003;20503;50.200;19.508;2022-11-02T06:22:41;13;6;3
34240;PMS7003;20503;50.200;19.508;2022-11-02T06:27:52;11;8;5
34240;PMS7003;20503;50.200;19.508;2022-11-02T06:33:02;7;5;4
34240;PMS7003;20503;50.200;19.508;2022-11-02T06:38:13;8;7;4
34240;PMS7003;20503;50.200;19.508;2022-11-02T06:43:24;16;9;6
34240;PMS7003;20503;50.200;19.508;2022-11-02T06:48:35;13;8;5
34240;PMS7003;20503;50.200;19.508;2022-11-02T06:53:45;8;7;4
34240;PMS7003;20503;50.200;19.508;2022-11-02T06:58:56;9;6;4
34240;PMS7003;20503;50.200;19.508;2022-11-02T07:04:07;8;6;4
34240;PMS7003;20503;50.200;19.508;2022-11-02T07:09:18;8;6;5
34240;PMS7003;20503;50.200;19.508;2022-11-02T07:14:28;8;7;4
34240;PMS7003;20503;50.200;19.508;2022-11-02T07:19:39;4;4;3
34240;PMS7003;20503;50.200;19.508;2022-11-02T07:24:50;8;3;2
34240;PMS7003;20503;50.200;19.508;2022-11-02T07:30:01;12;5;3
34240;PMS7003;20503;50.200;19.508;2022-11-02T07:35:12;11;10;7
34240;PMS7003;20503;50.200;19.508;2022-11-02T07:40:22;6;5;4
34240;PMS7003;20503;50.200;19.508;2022-11-02T07:45:33;7;4;3
34240;PMS7003;20503;50.200;19.508;2022-11-02T07:50:44;6;5;4
34240;PMS7003;20503;50.200;19.508;2022-11-02T07:55:55;13;8;5
34240;PMS7003;20503;50.200;19.508;2022-11-02T08:01:06;12;10;6
34240;PMS7003;20503;50.200;19.508;2022-11-02T08:06:16;10;6;5
34240;PMS7003;20503;50.200;19.508;2022-11-02T08:11:27;7;6;4
34240;PMS7003;20503;50.200;19.508;2022-11-02T08:16:38;22;11;7
34240;PMS7003;20503;50.200;19.508;2022-11-02T08:21:48;18;5;3
34240;PMS7003;20503;50.200;19.508;2022-11-02T08:26:59;8;7;5
34240;PMS7003;20503;50.200;19.508;2022-11-02T08:32:10;6;4;3
34240;PMS7003;20503;50.200;19.508;2022-11-02T08:37:20;9;7;5
34240;PMS7003;20503;50.200;19.508;2022-11-02T08:42:49;8;3;3
34240;PMS7003;20503;50.200;19.508;2022-11-02T08:47:59;8;6;4
34240;PMS7003;20503;50.200;19.508;2022-11-02T08:53:10;5;5;3
34240;PMS7003;20503;50.200;19.508;2022-11-02T08:58:20;8;7;5
34240;PMS7003;20503;50.200;19.508;2022-11-02T09:03:31;6;4;3
34240;PMS7003;20503;50.200;19.508;2022-11-02T09:08:42;11;7;5
34240;PMS7003;20503;50.200;19.508;2022-11-02T09:13:53;8;6;5
34240;PMS7003;20503;50.200;19.508;2022-11-02T09:19:04;7;6;4
34240;PMS7003;20503;50.200;19.508;2022-11-02T09:24:14;17;11;7
34240;PMS7003;20503;50.200;19.508;2022-11-02T09:29:25;10;7;4
34240;PMS7003;20503;50.200;19.508;2022-11-02T09:34:35;6;6;4
34240;PMS7003;20503;50.200;19.508;2022-11-02T09:39:46;5;5;3
34240;PMS7003;20503;50.200;19.508;2022-11-02T09:45:01;6;4;3
34240;PMS7003;20503;50.200;19.508;2022-11-02T09:50:08;6;5;3
34240;PMS7003;20503;50.200;19.508;2022-11-02T09:55:20;9;6;3
34240;PMS7003;20503;50.200;19.508;2022-11-02T10:00:29;6;5;4
34240;PMS7003;20503;50.200;19.508;2022-11-02T10:05:40;13;7;3
34240;PMS7003;20503;50.200;19.508;2022-11-02T10:16:12;7;6;5
34240;PMS7003;20503;50.200;19.508;2022-11-02T10:21:25;6;4;3
34240;PMS7003;20503;50.200;19.508;2022-11-02T10:26:32;6;3;3
34240;PMS7003;20503;50.200;19.508;2022-11-02T10:31:35;7;5;4
34240;PMS7003;20503;50.200;19.508;2022-11-02T10:36:54;4;3;2
34240;PMS7003;20503;50.200;19.508;2022-11-02T10:42:10;12;6;2
34240;PMS7003;20503;50.200;19.508;2022-11-02T10:47:19;6;5;4
34240;PMS7003;20503;50.200;19.508;2022-11-02T10:52:23;3;2;1
34240;PMS7003;20503;50.200;19.508;2022-11-02T10:57:29;1;1;0
34240;PMS7003;20503;50.200;19.508;2022-11-02T11:02:38;6;4;2
34240;PMS7003;20503;50.200;19.508;2022-11-02T11:07:49;2;2;1
34240;PMS7003;20503;50.200;19.508;2022-11-02T11:12:59;2;2;1
34240;PMS7003;20503;50.200;19.508;2022-11-02T11:18:11;0;0;0
34240;PMS7003;20503;50.200;19.508;2022-11-02T11:23:24;2;2;1
34240;PMS7003;20503;50.200;19.508;2022-11-02T11:28:33;0;0;0
34240;PMS7003;20503;50.200;19.508;2022-11-02T11:34:04;0;0;0
34240;PMS7003;20503;50.200;19.508;2022-11-02T11:38:57;4;2;1
34240;PMS7003;20503;50.200;19.508;2022-11-02T11:44:04;5;1;0
34240;PMS7003;20503;50.200;19.508;2022-11-02T11:54:26;1;1;0
34240;PMS7003;20503;50.200;19.508;2022-11-02T12:04:47;1;1;1
34240;PMS7003;20503;50.200;19.508;2022-11-02T12:10:02;4;0;0
34240;PMS7003;20503;50.200;19.508;2022-11-02T12:15:19;2;2;1
34240;PMS7003;20503;50.200;19.508;2022-11-02T12:20:34;3;2;1
34240;PMS7003;20503;50.200;19.508;2022-11-02T12:25:43;2;1;0
34240;PMS7003;20503;50.200;19.508;2022-11-02T12:46:41;0;0;0
34240;PMS7003;20503;50.200;19.508;2022-11-02T12:51:58;2;2;2
34240;PMS7003;20503;50.200;19.508;2022-11-02T12:57:09;1;1;1
34240;PMS7003;20503;50.200;19.508;2022-11-02T13:02:15;5;2;1
34240;PMS7003;20503;50.200;19.508;2022-11-02T13:07:25;5;2;2
34240;PMS7003;20503;50.200;19.508;2022-11-02T13:12:31;2;2;1
34240;PMS7003;20503;50.200;19.508;2022-11-02T13:17:38;1;1;0
34240;PMS7003;20503;50.200;19.508;2022-11-02T13:22:44;2;2;1
34240;PMS7003;20503;50.200;19.508;2022-11-02T13:27:57;1;0;0
34240;PMS7003;20503;50.200;19.508;2022-11-02T13:38:33;4;1;0
34240;PMS7003;20503;50.200;19.508;2022-11-02T13:53:55;2;2;1
34240;PMS7003;20503;50.200;19.508;2022-11-02T13:59:01;1;1;0
34240;PMS7003;20503;50.200;19.508;2022-11-02T14:04:09;6;3;2
34240;PMS7003;20503;50.200;19.508;2022-11-02T14:09:33;1;0;0
34240;PMS7003;20503;50.200;19.508;2022-11-02T14:14:29;4;2;1
34240;PMS7003;20503;50.200;19.508;2022-11-02T14:19:31;4;3;2
34240;PMS7003;20503;50.200;19.508;2022-11-02T14:29:53;8;5;4
34240;PMS7003;20503;50.200;19.508;2022-11-02T14:55:58;2;2;2
34240;PMS7003;20503;50.200;19.508;2022-11-02T15:01:00;12;8;6
34240;PMS7003;20503;50.200;19.508;2022-11-02T15:06:12;11;10;6
34240;PMS7003;20503;50.200;19.508;2022-11-02T15:21:41;21;17;11
34240;PMS7003;20503;50.200;19.508;2022-11-02T15:26:46;22;13;8
34240;PMS7003;20503;50.200;19.508;2022-11-02T15:31:57;12;10;7
34240;PMS7003;20503;50.200;19.508;2022-11-02T15:37:07;11;8;5
34240;PMS7003;20503;50.200;19.508;2022-11-02T15:47:38;9;8;7
34240;PMS7003;20503;50.200;19.508;2022-11-02T15:58:08;11;8;6
34240;PMS7003;20503;50.200;19.508;2022-11-02T16:03:16;19;12;9
34240;PMS7003;20503;50.200;19.508;2022-11-02T16:08:21;10;8;6
34240;PMS7003;20503;50.200;19.508;2022-11-02T16:13:23;14;8;6
34240;PMS7003;20503;50.200;19.508;2022-11-02T16:18:37;19;14;10
34240;PMS7003;20503;50.200;19.508;2022-11-02T16:23:48;13;7;6
34240;PMS7003;20503;50.200;19.508;2022-11-02T16:28:55;16;9;6
34240;PMS7003;20503;50.200;19.508;2022-11-02T16:34:17;8;6;4
34240;PMS7003;20503;50.200;19.508;2022-11-02T16:39:36;6;1;1
34240;PMS7003;20503;50.200;19.508;2022-11-02T16:44:34;7;4;4
34240;PMS7003;20503;50.200;19.508;2022-11-02T16:54:53;5;4;3
34240;PMS7003;20503;50.200;19.508;2022-11-02T17:00:00;10;6;5
34240;PMS7003;20503;50.200;19.508;2022-11-02T17:05:13;9;5;4
34240;PMS7003;20503;50.200;19.508;2022-11-02T17:10:25;8;4;2
34240;PMS7003;20503;50.200;19.508;2022-11-02T17:15:31;6;2;1
34240;PMS7003;20503;50.200;19.508;2022-11-02T17:20:42;5;4;3
34240;PMS7003;20503;50.200;19.508;2022-11-02T17:25:53;4;3;2
34240;PMS7003;20503;50.200;19.508;2022-11-02T17:31:05;9;6;4
34240;PMS7003;20503;50.200;19.508;2022-11-02T17:36:17;7;3;2
34240;PMS7003;20503;50.200;19.508;2022-11-02T17:41:26;4;3;3
34240;PMS7003;20503;50.200;19.508;2022-11-02T17:46:41;5;4;4
34240;PMS7003;20503;50.200;19.508;2022-11-02T17:51:46;1;1;1
34240;PMS7003;20503;50.200;19.508;2022-11-02T17:56:58;6;5;3
34240;PMS7003;20503;50.200;19.508;2022-11-02T18:02:12;7;5;4
34240;PMS7003;20503;50.200;19.508;2022-11-02T18:07:19;3;2;2
34240;PMS7003;20503;50.200;19.508;2022-11-02T18:12:29;7;7;5
34240;PMS7003;20503;50.200;19.508;2022-11-02T18:17:40;6;5;3
34240;PMS7003;20503;50.200;19.508;2022-11-02T18:22:51;4;3;2
34240;PMS7003;20503;50.200;19.508;2022-11-02T18:28:05;7;6;4
34240;PMS7003;20503;50.200;19.508;2022-11-02T18:33:13;7;5;3
34240;PMS7003;20503;50.200;19.508;2022-11-02T18:38:26;3;3;3
34240;PMS7003;20503;50.200;19.508;2022-11-02T18:43:35;9;6;4
34240;PMS7003;20503;50.200;19.508;2022-11-02T18:48:45;6;5;3
34240;PMS7003;20503;50.200;19.508;2022-11-02T18:54:02;9;6;4
34240;PMS7003;20503;50.200;19.508;2022-11-02T18:59:07;5;3;2
34240;PMS7003;20503;50.200;19.508;2022-11-02T19:04:17;7;5;3
34240;PMS7003;20503;50.200;19.508;2022-11-02T19:09:28;12;7;5
34240;PMS7003;20503;50.200;19.508;2022-11-02T19:14:39;8;8;5
34240;PMS7003;20503;50.200;19.508;2022-11-02T19:19:50;10;9;6
34240;PMS7003;20503;50.200;19.508;2022-11-02T19:25:01;7;7;6
34240;PMS7003;20503;50.200;19.508;2022-11-02T19:35:24;22;17;12
34240;PMS7003;20503;50.200;19.508;2022-11-02T19:40:33;13;11;8
34240;PMS7003;20503;50.200;19.508;2022-11-02T19:45:43;8;7;4
34240;PMS7003;20503;50.200;19.508;2022-11-02T19:50:54;17;11;7
34240;PMS7003;20503;50.200;19.508;2022-11-02T19:56:06;17;11;8
34240;PMS7003;20503;50.200;19.508;2022-11-02T20:01:16;13;13;9
34240;PMS7003;20503;50.200;19.508;2022-11-02T20:06:29;12;11;8
34240;PMS7003;20503;50.200;19.508;2022-11-02T20:11:37;13;10;8
34240;PMS7003;20503;50.200;19.508;2022-11-02T20:16:48;15;9;7
34240;PMS7003;20503;50.200;19.508;2022-11-02T20:21:59;8;5;3
34240;PMS7003;20503;50.200;19.508;2022-11-02T20:27:10;7;4;3
34240;PMS7003;20503;50.200;19.508;2022-11-02T20:32:20;11;9;6
34240;PMS7003;20503;50.200;19.508;2022-11-02T20:37:34;10;5;4
34240;PMS7003;20503;50.200;19.508;2022-11-02T20:42:42;9;4;3
34240;PMS7003;20503;50.200;19.508;2022-11-02T20:47:52;6;5;4
34240;PMS7003;20503;50.200;19.508;2022-11-02T20:53:03;4;4;3
34240;PMS7003;20503;50.200;19.508;2022-11-02T20:58:15;9;8;6
34240;PMS7003;20503;50.200;19.508;2022-11-02T21:03:25;10;8;4
34240;PMS7003;20503;50.200;19.508;2022-11-02T21:08:35;11;8;6
34240;PMS7003;20503;50.200;19.508;2022-11-02T21:13:46;4;4;3
34240;PMS7003;20503;50.200;19.508;2022-11-02T21:18:57;8;6;4
34240;PMS7003;20503;50.200;19.508;2022-11-02T21:24:08;3;0;0
34240;PMS7003;20503;50.200;19.508;2022-11-02T21:29:18;11;8;4
34240;PMS7003;20503;50.200;19.508;2022-11-02T21:34:29;7;3;3
34240;PMS7003;20503;50.200;19.508;2022-11-02T21:39:40;6;4;3
34240;PMS7003;20503;50.200;19.508;2022-11-02T21:44:51;14;10;6
34240;PMS7003;20503;50.200;19.508;2022-11-02T21:50:05;11;9;5
34240;PMS7003;20503;50.200;19.508;2022-11-02T21:55:13;9;8;6
34240;PMS7003;20503;50.200;19.508;2022-11-02T22:00:23;9;7;5
34240;PMS7003;20503;50.200;19.508;2022-11-02T22:05:34;7;5;4
34240;PMS7003;20503;50.200;19.508;2022-11-02T22:10:48;7;5;4
34240;PMS7003;20503;50.200;19.508;2022-11-02T22:15:55;9;6;4
34240;PMS7003;20503;50.200;19.508;2022-11-02T22:21:06;7;6;4
34240;PMS7003;20503;50.200;19.508;2022-11-02T22:26:18;11;7;5
34240;PMS7003;20503;50.200;19.508;2022-11-02T22:31:31;7;6;5
34240;PMS7003;20503;50.200;19.508;2022-11-02T22:36:39;10;10;6
34240;PMS7003;20503;50.200;19.508;2022-11-02T22:41:49;20;14;7
34240;PMS7003;20503;50.200;19.508;2022-11-02T22:47:00;13;8;5
34240;PMS7003;20503;50.200;19.508;2022-11-02T22:52:11;11;9;6
34240;PMS7003;20503;50.200;19.508;2022-11-02T22:57:21;17;12;7
34240;PMS7003;20503;50.200;19.508;2022-11-02T23:02:32;12;12;8
34240;PMS7003;20503;50.200;19.508;2022-11-02T23:07:43;13;8;6
34240;PMS7003;20503;50.200;19.508;2022-11-02T23:12:53;15;10;7
34240;PMS7003;20503;50.200;19.508;2022-11-02T23:18:04;12;7;5
34240;PMS7003;20503;50.200;19.508;2022-11-02T23:23:15;12;10;7
34240;PMS7003;20503;50.200;19.508;2022-11-02T23:28:28;10;8;5
34240;PMS7003;20503;50.200;19.508;2022-11-02T23:33:41;8;5;4
34240;PMS7003;20503;50.200;19.508;2022-11-02T23:38:47;19;12;7
34240;PMS7003;20503;50.200;19.508;2022-11-02T23:44:01;8;7;5
34240;PMS7003;20503;50.200;19.508;2022-11-02T23:49:11;20;13;8
34240;PMS7003;20503;50.200;19.508;2022-11-02T23:54:19;13;8;5
34240;PMS7003;20503;50.200;19.508;2022-11-02T23:59:33;6;5;3
